sensor_id;sensor_type;location;lat;lon;timestamp;P1;durP1;ratioP1;P2;durP2;ratioP2
51866;SDS011;52862;52.504;13.480;2023-06-22T00:00:50;22.55;;;10.25;;
51866;SDS011;52862;52.504;13.480;2023-06-22T00:03:17;15.85;;;9.98;;
51866;SDS011;52862;52.504;13.480;2023-06-22T00:05:45;16.75;;;10.30;;
51866;SDS011;52862;52.504;13.480;2023-06-22T00:08:12;14.13;;;10.00;;
51866;SDS011;52862;52.504;13.480;2023-06-22T00:10:39;26.35;;;10.75;;
51866;SDS011;52862;52.504;13.480;2023-06-22T00:13:07;16.30;;;10.65;;
51866;SDS011;52862;52.504;13.480;2023-06-22T00:15:35;25.10;;;11.40;;
51866;SDS011;52862;52.504;13.480;2023-06-22T00:18:03;18.20;;;11.07;;
51866;SDS011;52862;52.504;13.480;2023-06-22T00:20:31;16.75;;;10.90;;
51866;SDS011;52862;52.504;13.480;2023-06-22T00:22:58;22.08;;;12.02;;
51866;SDS011;52862;52.504;13.480;2023-06-22T00:25:26;19.90;;;11.18;;
51866;SDS011;52862;52.504;13.480;2023-06-22T00:27:53;19.23;;;10.85;;
51866;SDS011;52862;52.504;13.480;2023-06-22T00:30:20;20.08;;;11.57;;
51866;SDS011;52862;52.504;13.480;2023-06-22T00:32:47;17.45;;;10.98;;
51866;SDS011;52862;52.504;13.480;2023-06-22T00:35:13;17.38;;;11.10;;
51866;SDS011;52862;52.504;13.480;2023-06-22T00:37:40;17.10;;;11.35;;
51866;SDS011;52862;52.504;13.480;2023-06-22T00:40:08;20.02;;;10.75;;
51866;SDS011;52862;52.504;13.480;2023-06-22T00:42:37;21.27;;;11.48;;
51866;SDS011;52862;52.504;13.480;2023-06-22T00:45:04;17.48;;;10.77;;
51866;SDS011;52862;52.504;13.480;2023-06-22T00:47:33;21.50;;;11.18;;
51866;SDS011;52862;52.504;13.480;2023-06-22T00:50:01;17.70;;;11.00;;
51866;SDS011;52862;52.504;13.480;2023-06-22T00:52:29;16.00;;;11.05;;
51866;SDS011;52862;52.504;13.480;2023-06-22T00:54:59;18.55;;;11.18;;
51866;SDS011;52862;52.504;13.480;2023-06-22T00:57:27;18.25;;;11.43;;
51866;SDS011;52862;52.504;13.480;2023-06-22T00:59:55;18.95;;;10.93;;
51866;SDS011;52862;52.504;13.480;2023-06-22T01:02:22;17.40;;;11.45;;
51866;SDS011;52862;52.504;13.480;2023-06-22T01:04:49;28.00;;;11.02;;
51866;SDS011;52862;52.504;13.480;2023-06-22T01:07:17;19.63;;;11.90;;
51866;SDS011;52862;52.504;13.480;2023-06-22T01:09:52;17.13;;;11.38;;
51866;SDS011;52862;52.504;13.480;2023-06-22T01:12:25;26.02;;;11.20;;
51866;SDS011;52862;52.504;13.480;2023-06-22T01:14:58;21.08;;;11.60;;
51866;SDS011;52862;52.504;13.480;2023-06-22T01:17:31;19.42;;;11.70;;
51866;SDS011;52862;52.504;13.480;2023-06-22T01:19:58;19.23;;;12.00;;
51866;SDS011;52862;52.504;13.480;2023-06-22T01:22:32;31.42;;;11.70;;
51866;SDS011;52862;52.504;13.480;2023-06-22T01:25:07;19.20;;;11.85;;
51866;SDS011;52862;52.504;13.480;2023-06-22T01:27:39;25.05;;;12.32;;
51866;SDS011;52862;52.504;13.480;2023-06-22T01:30:14;20.20;;;11.68;;
51866;SDS011;52862;52.504;13.480;2023-06-22T01:32:42;24.05;;;12.82;;
51866;SDS011;52862;52.504;13.480;2023-06-22T01:35:10;24.23;;;12.95;;
51866;SDS011;52862;52.504;13.480;2023-06-22T01:37:38;21.90;;;12.13;;
51866;SDS011;52862;52.504;13.480;2023-06-22T01:40:05;18.98;;;12.10;;
51866;SDS011;52862;52.504;13.480;2023-06-22T01:42:34;23.52;;;12.63;;
51866;SDS011;52862;52.504;13.480;2023-06-22T01:45:02;22.35;;;12.90;;
51866;SDS011;52862;52.504;13.480;2023-06-22T01:47:31;20.23;;;13.00;;
51866;SDS011;52862;52.504;13.480;2023-06-22T01:49:58;28.80;;;12.70;;
51866;SDS011;52862;52.504;13.480;2023-06-22T01:52:25;22.15;;;13.52;;
51866;SDS011;52862;52.504;13.480;2023-06-22T01:54:52;21.85;;;13.70;;
51866;SDS011;52862;52.504;13.480;2023-06-22T01:57:19;17.88;;;12.50;;
51866;SDS011;52862;52.504;13.480;2023-06-22T01:59:48;21.83;;;12.27;;
51866;SDS011;52862;52.504;13.480;2023-06-22T02:02:19;30.20;;;13.43;;
51866;SDS011;52862;52.504;13.480;2023-06-22T02:04:54;19.02;;;13.18;;
51866;SDS011;52862;52.504;13.480;2023-06-22T02:07:23;21.35;;;13.88;;
51866;SDS011;52862;52.504;13.480;2023-06-22T02:09:52;24.92;;;14.23;;
51866;SDS011;52862;52.504;13.480;2023-06-22T02:12:21;19.00;;;13.40;;
51866;SDS011;52862;52.504;13.480;2023-06-22T02:14:50;19.02;;;13.15;;
51866;SDS011;52862;52.504;13.480;2023-06-22T02:17:18;27.70;;;13.75;;
51866;SDS011;52862;52.504;13.480;2023-06-22T02:19:45;32.25;;;13.32;;
51866;SDS011;52862;52.504;13.480;2023-06-22T02:22:12;20.38;;;12.40;;
51866;SDS011;52862;52.504;13.480;2023-06-22T02:24:39;23.40;;;14.18;;
51866;SDS011;52862;52.504;13.480;2023-06-22T02:27:06;21.90;;;13.75;;
51866;SDS011;52862;52.504;13.480;2023-06-22T02:29:33;31.88;;;14.60;;
51866;SDS011;52862;52.504;13.480;2023-06-22T02:32:00;32.72;;;15.05;;
51866;SDS011;52862;52.504;13.480;2023-06-22T02:34:27;19.65;;;13.88;;
51866;SDS011;52862;52.504;13.480;2023-06-22T02:36:55;33.78;;;14.15;;
51866;SDS011;52862;52.504;13.480;2023-06-22T02:39:23;23.98;;;13.05;;
51866;SDS011;52862;52.504;13.480;2023-06-22T02:41:50;22.10;;;13.88;;
51866;SDS011;52862;52.504;13.480;2023-06-22T02:44:18;27.00;;;14.40;;
51866;SDS011;52862;52.504;13.480;2023-06-22T02:46:45;23.92;;;13.85;;
51866;SDS011;52862;52.504;13.480;2023-06-22T02:49:13;23.65;;;13.45;;
51866;SDS011;52862;52.504;13.480;2023-06-22T02:51:45;24.67;;;14.32;;
51866;SDS011;52862;52.504;13.480;2023-06-22T02:54:13;32.92;;;13.82;;
51866;SDS011;52862;52.504;13.480;2023-06-22T02:56:40;22.98;;;15.00;;
51866;SDS011;52862;52.504;13.480;2023-06-22T02:59:09;22.98;;;14.55;;
51866;SDS011;52862;52.504;13.480;2023-06-22T03:01:36;23.00;;;14.35;;
51866;SDS011;52862;52.504;13.480;2023-06-22T03:04:05;25.73;;;14.57;;
51866;SDS011;52862;52.504;13.480;2023-06-22T03:06:33;23.88;;;13.70;;
51866;SDS011;52862;52.504;13.480;2023-06-22T03:09:00;26.80;;;14.25;;
51866;SDS011;52862;52.504;13.480;2023-06-22T03:11:29;26.23;;;14.02;;
51866;SDS011;52862;52.504;13.480;2023-06-22T03:13:57;23.60;;;12.73;;
51866;SDS011;52862;52.504;13.480;2023-06-22T03:16:24;24.77;;;12.82;;
51866;SDS011;52862;52.504;13.480;2023-06-22T03:18:51;28.42;;;12.98;;
51866;SDS011;52862;52.504;13.480;2023-06-22T03:21:19;21.20;;;12.30;;
51866;SDS011;52862;52.504;13.480;2023-06-22T03:23:45;21.88;;;13.73;;
51866;SDS011;52862;52.504;13.480;2023-06-22T03:26:12;20.27;;;13.05;;
51866;SDS011;52862;52.504;13.480;2023-06-22T03:28:39;16.58;;;11.80;;
51866;SDS011;52862;52.504;13.480;2023-06-22T03:31:06;26.98;;;12.07;;
51866;SDS011;52862;52.504;13.480;2023-06-22T03:33:34;17.60;;;10.20;;
51866;SDS011;52862;52.504;13.480;2023-06-22T03:36:01;26.77;;;9.73;;
51866;SDS011;52862;52.504;13.480;2023-06-22T03:38:28;16.55;;;8.88;;
51866;SDS011;52862;52.504;13.480;2023-06-22T03:40:55;14.85;;;8.57;;
51866;SDS011;52862;52.504;13.480;2023-06-22T03:43:22;13.13;;;8.23;;
51866;SDS011;52862;52.504;13.480;2023-06-22T03:45:49;19.50;;;8.15;;
51866;SDS011;52862;52.504;13.480;2023-06-22T03:48:16;13.95;;;7.78;;
51866;SDS011;52862;52.504;13.480;2023-06-22T03:50:43;20.33;;;8.20;;
51866;SDS011;52862;52.504;13.480;2023-06-22T03:53:10;13.85;;;8.13;;
51866;SDS011;52862;52.504;13.480;2023-06-22T03:55:36;19.52;;;8.50;;
51866;SDS011;52862;52.504;13.480;2023-06-22T03:58:06;18.70;;;7.38;;
51866;SDS011;52862;52.504;13.480;2023-06-22T04:00:34;15.57;;;7.28;;
51866;SDS011;52862;52.504;13.480;2023-06-22T04:03:01;14.80;;;7.88;;
51866;SDS011;52862;52.504;13.480;2023-06-22T04:05:29;12.07;;;7.00;;
51866;SDS011;52862;52.504;13.480;2023-06-22T04:07:56;14.70;;;6.93;;
51866;SDS011;52862;52.504;13.480;2023-06-22T04:10:22;13.15;;;7.38;;
51866;SDS011;52862;52.504;13.480;2023-06-22T04:12:49;15.63;;;7.43;;
51866;SDS011;52862;52.504;13.480;2023-06-22T04:15:16;15.40;;;6.40;;
51866;SDS011;52862;52.504;13.480;2023-06-22T04:17:42;19.08;;;7.78;;
51866;SDS011;52862;52.504;13.480;2023-06-22T04:20:09;14.63;;;7.43;;
51866;SDS011;52862;52.504;13.480;2023-06-22T04:22:37;16.17;;;7.50;;
51866;SDS011;52862;52.504;13.480;2023-06-22T04:25:05;14.98;;;7.50;;
51866;SDS011;52862;52.504;13.480;2023-06-22T04:27:33;16.17;;;7.43;;
51866;SDS011;52862;52.504;13.480;2023-06-22T04:30:03;10.68;;;6.88;;
51866;SDS011;52862;52.504;13.480;2023-06-22T04:32:30;13.35;;;7.13;;
51866;SDS011;52862;52.504;13.480;2023-06-22T04:34:57;13.70;;;7.13;;
51866;SDS011;52862;52.504;13.480;2023-06-22T04:37:25;10.02;;;6.55;;
51866;SDS011;52862;52.504;13.480;2023-06-22T04:39:53;20.00;;;7.25;;
51866;SDS011;52862;52.504;13.480;2023-06-22T04:42:20;14.13;;;6.95;;
51866;SDS011;52862;52.504;13.480;2023-06-22T04:44:46;17.70;;;7.07;;
51866;SDS011;52862;52.504;13.480;2023-06-22T04:47:13;15.00;;;6.88;;
51866;SDS011;52862;52.504;13.480;2023-06-22T04:49:39;12.95;;;7.20;;
51866;SDS011;52862;52.504;13.480;2023-06-22T04:52:09;13.32;;;6.57;;
51866;SDS011;52862;52.504;13.480;2023-06-22T04:54:38;20.75;;;6.53;;
51866;SDS011;52862;52.504;13.480;2023-06-22T04:57:07;11.23;;;6.38;;
51866;SDS011;52862;52.504;13.480;2023-06-22T04:59:35;12.82;;;6.60;;
51866;SDS011;52862;52.504;13.480;2023-06-22T05:02:04;13.80;;;6.47;;
51866;SDS011;52862;52.504;13.480;2023-06-22T05:04:32;15.43;;;6.38;;
51866;SDS011;52862;52.504;13.480;2023-06-22T05:07:00;17.73;;;6.93;;
51866;SDS011;52862;52.504;13.480;2023-06-22T05:09:27;16.10;;;6.55;;
51866;SDS011;52862;52.504;13.480;2023-06-22T05:11:54;13.77;;;6.88;;
51866;SDS011;52862;52.504;13.480;2023-06-22T05:14:22;15.13;;;6.28;;
51866;SDS011;52862;52.504;13.480;2023-06-22T05:16:49;18.75;;;6.30;;
51866;SDS011;52862;52.504;13.480;2023-06-22T05:19:17;14.68;;;6.97;;
51866;SDS011;52862;52.504;13.480;2023-06-22T05:21:44;14.18;;;6.70;;
51866;SDS011;52862;52.504;13.480;2023-06-22T05:24:11;13.38;;;6.95;;
51866;SDS011;52862;52.504;13.480;2023-06-22T05:26:38;14.88;;;6.10;;
51866;SDS011;52862;52.504;13.480;2023-06-22T05:29:04;10.15;;;6.45;;
51866;SDS011;52862;52.504;13.480;2023-06-22T05:31:32;11.80;;;6.57;;
51866;SDS011;52862;52.504;13.480;2023-06-22T05:33:59;15.85;;;6.40;;
51866;SDS011;52862;52.504;13.480;2023-06-22T05:36:26;11.88;;;6.32;;
51866;SDS011;52862;52.504;13.480;2023-06-22T05:38:53;17.63;;;6.82;;
51866;SDS011;52862;52.504;13.480;2023-06-22T05:41:19;19.65;;;6.03;;
51866;SDS011;52862;52.504;13.480;2023-06-22T05:43:46;20.92;;;6.35;;
51866;SDS011;52862;52.504;13.480;2023-06-22T05:46:13;19.80;;;5.80;;
51866;SDS011;52862;52.504;13.480;2023-06-22T05:48:40;17.98;;;5.93;;
51866;SDS011;52862;52.504;13.480;2023-06-22T05:51:08;22.55;;;5.95;;
51866;SDS011;52862;52.504;13.480;2023-06-22T05:53:35;10.23;;;5.40;;
51866;SDS011;52862;52.504;13.480;2023-06-22T05:56:01;10.65;;;5.72;;
51866;SDS011;52862;52.504;13.480;2023-06-22T05:58:29;12.95;;;5.40;;
51866;SDS011;52862;52.504;13.480;2023-06-22T06:00:56;9.10;;;4.95;;
51866;SDS011;52862;52.504;13.480;2023-06-22T06:03:23;19.75;;;4.78;;
51866;SDS011;52862;52.504;13.480;2023-06-22T06:05:50;10.35;;;4.93;;
51866;SDS011;52862;52.504;13.480;2023-06-22T06:08:17;12.52;;;5.22;;
51866;SDS011;52862;52.504;13.480;2023-06-22T06:10:43;8.75;;;4.18;;
51866;SDS011;52862;52.504;13.480;2023-06-22T06:13:10;13.07;;;5.20;;
51866;SDS011;52862;52.504;13.480;2023-06-22T06:15:37;16.05;;;5.25;;
51866;SDS011;52862;52.504;13.480;2023-06-22T06:18:04;17.13;;;4.68;;
51866;SDS011;52862;52.504;13.480;2023-06-22T06:20:32;18.42;;;4.75;;
51866;SDS011;52862;52.504;13.480;2023-06-22T06:23:00;14.85;;;5.13;;
51866;SDS011;52862;52.504;13.480;2023-06-22T06:25:27;14.48;;;4.45;;
51866;SDS011;52862;52.504;13.480;2023-06-22T06:27:54;17.90;;;5.40;;
51866;SDS011;52862;52.504;13.480;2023-06-22T06:30:21;11.10;;;4.90;;
51866;SDS011;52862;52.504;13.480;2023-06-22T06:32:48;13.55;;;5.10;;
51866;SDS011;52862;52.504;13.480;2023-06-22T06:35:15;16.83;;;4.93;;
51866;SDS011;52862;52.504;13.480;2023-06-22T06:37:43;10.05;;;4.53;;
51866;SDS011;52862;52.504;13.480;2023-06-22T06:40:14;12.38;;;4.50;;
51866;SDS011;52862;52.504;13.480;2023-06-22T06:42:42;16.35;;;5.93;;
51866;SDS011;52862;52.504;13.480;2023-06-22T06:45:11;7.55;;;4.18;;
51866;SDS011;52862;52.504;13.480;2023-06-22T06:47:38;7.90;;;3.83;;
51866;SDS011;52862;52.504;13.480;2023-06-22T06:50:05;14.13;;;4.47;;
51866;SDS011;52862;52.504;13.480;2023-06-22T06:52:33;14.80;;;3.90;;
51866;SDS011;52862;52.504;13.480;2023-06-22T06:55:03;7.43;;;3.85;;
51866;SDS011;52862;52.504;13.480;2023-06-22T06:57:34;14.40;;;3.85;;
51866;SDS011;52862;52.504;13.480;2023-06-22T07:00:00;9.48;;;3.80;;
51866;SDS011;52862;52.504;13.480;2023-06-22T07:02:27;7.72;;;3.28;;
51866;SDS011;52862;52.504;13.480;2023-06-22T07:04:54;5.90;;;3.20;;
51866;SDS011;52862;52.504;13.480;2023-06-22T07:07:21;12.65;;;3.63;;
51866;SDS011;52862;52.504;13.480;2023-06-22T07:09:48;6.85;;;3.17;;
51866;SDS011;52862;52.504;13.480;2023-06-22T07:12:14;10.27;;;3.83;;
51866;SDS011;52862;52.504;13.480;2023-06-22T07:14:42;9.63;;;3.30;;
51866;SDS011;52862;52.504;13.480;2023-06-22T07:17:08;9.52;;;4.13;;
51866;SDS011;52862;52.504;13.480;2023-06-22T07:19:35;6.30;;;3.70;;
51866;SDS011;52862;52.504;13.480;2023-06-22T07:22:02;15.10;;;4.28;;
51866;SDS011;52862;52.504;13.480;2023-06-22T07:24:29;10.77;;;3.65;;
51866;SDS011;52862;52.504;13.480;2023-06-22T07:26:56;11.52;;;3.20;;
51866;SDS011;52862;52.504;13.480;2023-06-22T07:29:25;9.38;;;3.20;;
51866;SDS011;52862;52.504;13.480;2023-06-22T07:31:53;9.15;;;3.53;;
51866;SDS011;52862;52.504;13.480;2023-06-22T07:34:21;7.78;;;2.88;;
51866;SDS011;52862;52.504;13.480;2023-06-22T07:36:48;9.23;;;3.53;;
51866;SDS011;52862;52.504;13.480;2023-06-22T07:39:15;12.35;;;3.13;;
51866;SDS011;52862;52.504;13.480;2023-06-22T07:41:41;8.27;;;3.30;;
51866;SDS011;52862;52.504;13.480;2023-06-22T07:44:08;5.95;;;2.70;;
51866;SDS011;52862;52.504;13.480;2023-06-22T07:46:35;5.75;;;2.50;;
51866;SDS011;52862;52.504;13.480;2023-06-22T07:49:05;8.40;;;2.80;;
51866;SDS011;52862;52.504;13.480;2023-06-22T07:51:33;10.07;;;2.97;;
51866;SDS011;52862;52.504;13.480;2023-06-22T07:54:00;5.45;;;3.10;;
51866;SDS011;52862;52.504;13.480;2023-06-22T07:56:27;6.03;;;2.83;;
51866;SDS011;52862;52.504;13.480;2023-06-22T07:58:54;6.45;;;2.75;;
51866;SDS011;52862;52.504;13.480;2023-06-22T08:01:23;7.82;;;2.45;;
51866;SDS011;52862;52.504;13.480;2023-06-22T08:03:50;4.95;;;2.85;;
51866;SDS011;52862;52.504;13.480;2023-06-22T08:06:18;5.88;;;2.83;;
51866;SDS011;52862;52.504;13.480;2023-06-22T08:08:44;5.10;;;2.50;;
51866;SDS011;52862;52.504;13.480;2023-06-22T08:11:13;7.82;;;3.00;;
51866;SDS011;52862;52.504;13.480;2023-06-22T08:13:40;13.00;;;2.85;;
51866;SDS011;52862;52.504;13.480;2023-06-22T08:16:06;7.57;;;3.00;;
51866;SDS011;52862;52.504;13.480;2023-06-22T08:18:33;7.80;;;2.90;;
51866;SDS011;52862;52.504;13.480;2023-06-22T08:21:00;7.57;;;2.53;;
51866;SDS011;52862;52.504;13.480;2023-06-22T08:23:30;12.75;;;3.30;;
51866;SDS011;52862;52.504;13.480;2023-06-22T08:25:56;12.30;;;3.03;;
51866;SDS011;52862;52.504;13.480;2023-06-22T08:28:23;8.70;;;2.78;;
51866;SDS011;52862;52.504;13.480;2023-06-22T08:30:50;7.40;;;2.90;;
51866;SDS011;52862;52.504;13.480;2023-06-22T08:33:17;9.18;;;3.50;;
51866;SDS011;52862;52.504;13.480;2023-06-22T08:35:53;4.60;;;3.00;;
51866;SDS011;52862;52.504;13.480;2023-06-22T08:38:20;7.85;;;3.15;;
51866;SDS011;52862;52.504;13.480;2023-06-22T08:40:48;8.68;;;2.78;;
51866;SDS011;52862;52.504;13.480;2023-06-22T08:43:15;11.48;;;3.58;;
51866;SDS011;52862;52.504;13.480;2023-06-22T08:45:41;10.25;;;3.40;;
51866;SDS011;52862;52.504;13.480;2023-06-22T08:48:10;10.20;;;3.22;;
51866;SDS011;52862;52.504;13.480;2023-06-22T08:50:36;16.77;;;3.38;;
51866;SDS011;52862;52.504;13.480;2023-06-22T08:53:06;8.88;;;3.28;;
51866;SDS011;52862;52.504;13.480;2023-06-22T08:55:33;6.65;;;3.35;;
51866;SDS011;52862;52.504;13.480;2023-06-22T08:58:01;11.45;;;3.50;;
51866;SDS011;52862;52.504;13.480;2023-06-22T09:00:29;8.55;;;3.90;;
51866;SDS011;52862;52.504;13.480;2023-06-22T09:02:58;14.88;;;3.70;;
51866;SDS011;52862;52.504;13.480;2023-06-22T09:05:26;12.75;;;3.17;;
51866;SDS011;52862;52.504;13.480;2023-06-22T09:07:53;11.27;;;2.85;;
51866;SDS011;52862;52.504;13.480;2023-06-22T09:10:22;10.15;;;3.25;;
51866;SDS011;52862;52.504;13.480;2023-06-22T09:12:49;5.25;;;3.05;;
51866;SDS011;52862;52.504;13.480;2023-06-22T09:15:17;19.83;;;3.33;;
51866;SDS011;52862;52.504;13.480;2023-06-22T09:17:44;9.30;;;3.03;;
51866;SDS011;52862;52.504;13.480;2023-06-22T09:20:13;6.50;;;3.35;;
51866;SDS011;52862;52.504;13.480;2023-06-22T09:22:40;5.75;;;3.28;;
51866;SDS011;52862;52.504;13.480;2023-06-22T09:25:07;9.95;;;3.30;;
51866;SDS011;52862;52.504;13.480;2023-06-22T09:27:35;7.03;;;3.05;;
51866;SDS011;52862;52.504;13.480;2023-06-22T09:30:02;5.80;;;3.00;;
51866;SDS011;52862;52.504;13.480;2023-06-22T09:32:30;6.05;;;2.95;;
51866;SDS011;52862;52.504;13.480;2023-06-22T09:34:57;10.48;;;2.88;;
51866;SDS011;52862;52.504;13.480;2023-06-22T09:37:24;16.35;;;3.40;;
51866;SDS011;52862;52.504;13.480;2023-06-22T09:39:51;8.10;;;3.05;;
51866;SDS011;52862;52.504;13.480;2023-06-22T09:42:18;7.15;;;3.05;;
51866;SDS011;52862;52.504;13.480;2023-06-22T09:44:46;5.18;;;3.03;;
51866;SDS011;52862;52.504;13.480;2023-06-22T09:47:14;11.65;;;3.20;;
51866;SDS011;52862;52.504;13.480;2023-06-22T09:49:42;6.60;;;3.42;;
51866;SDS011;52862;52.504;13.480;2023-06-22T09:52:14;8.20;;;2.63;;
51866;SDS011;52862;52.504;13.480;2023-06-22T09:54:42;6.45;;;3.30;;
51866;SDS011;52862;52.504;13.480;2023-06-22T09:57:09;7.07;;;3.10;;
51866;SDS011;52862;52.504;13.480;2023-06-22T09:59:36;5.78;;;2.65;;
51866;SDS011;52862;52.504;13.480;2023-06-22T10:02:05;6.05;;;3.03;;
51866;SDS011;52862;52.504;13.480;2023-06-22T10:04:33;6.82;;;3.33;;
51866;SDS011;52862;52.504;13.480;2023-06-22T10:07:02;7.07;;;2.97;;
51866;SDS011;52862;52.504;13.480;2023-06-22T10:09:29;10.60;;;3.47;;
51866;SDS011;52862;52.504;13.480;2023-06-22T10:11:55;12.07;;;4.15;;
51866;SDS011;52862;52.504;13.480;2023-06-22T10:14:23;8.65;;;4.60;;
51866;SDS011;52862;52.504;13.480;2023-06-22T10:16:51;10.40;;;6.25;;
51866;SDS011;52862;52.504;13.480;2023-06-22T10:19:18;11.45;;;3.88;;
51866;SDS011;52862;52.504;13.480;2023-06-22T10:21:46;13.00;;;3.28;;
51866;SDS011;52862;52.504;13.480;2023-06-22T10:24:13;6.32;;;3.00;;
51866;SDS011;52862;52.504;13.480;2023-06-22T10:26:41;7.85;;;3.67;;
51866;SDS011;52862;52.504;13.480;2023-06-22T10:29:08;19.90;;;3.90;;
51866;SDS011;52862;52.504;13.480;2023-06-22T10:31:43;4.90;;;2.95;;
51866;SDS011;52862;52.504;13.480;2023-06-22T10:34:10;7.70;;;3.45;;
51866;SDS011;52862;52.504;13.480;2023-06-22T10:36:37;6.53;;;3.63;;
51866;SDS011;52862;52.504;13.480;2023-06-22T10:39:05;10.70;;;3.20;;
51866;SDS011;52862;52.504;13.480;2023-06-22T10:41:32;5.80;;;3.33;;
51866;SDS011;52862;52.504;13.480;2023-06-22T10:44:01;9.50;;;2.90;;
51866;SDS011;52862;52.504;13.480;2023-06-22T10:46:28;6.53;;;3.33;;
51866;SDS011;52862;52.504;13.480;2023-06-22T10:48:56;6.53;;;3.13;;
51866;SDS011;52862;52.504;13.480;2023-06-22T10:51:24;6.72;;;2.83;;
51866;SDS011;52862;52.504;13.480;2023-06-22T10:53:52;11.32;;;2.95;;
51866;SDS011;52862;52.504;13.480;2023-06-22T10:56:18;10.52;;;2.92;;
51866;SDS011;52862;52.504;13.480;2023-06-22T10:58:46;8.07;;;3.38;;
51866;SDS011;52862;52.504;13.480;2023-06-22T11:01:13;6.68;;;3.17;;
51866;SDS011;52862;52.504;13.480;2023-06-22T11:04:00;9.27;;;3.15;;
51866;SDS011;52862;52.504;13.480;2023-06-22T11:06:40;7.43;;;3.13;;
51866;SDS011;52862;52.504;13.480;2023-06-22T11:09:18;5.65;;;2.97;;
51866;SDS011;52862;52.504;13.480;2023-06-22T11:11:55;4.97;;;2.70;;
51866;SDS011;52862;52.504;13.480;2023-06-22T11:14:24;4.13;;;2.60;;
51866;SDS011;52862;52.504;13.480;2023-06-22T11:16:54;11.25;;;3.63;;
51866;SDS011;52862;52.504;13.480;2023-06-22T11:19:23;7.82;;;3.00;;
51866;SDS011;52862;52.504;13.480;2023-06-22T11:21:50;6.88;;;2.90;;
51866;SDS011;52862;52.504;13.480;2023-06-22T11:24:17;7.88;;;3.17;;
51866;SDS011;52862;52.504;13.480;2023-06-22T11:26:44;7.20;;;3.30;;
51866;SDS011;52862;52.504;13.480;2023-06-22T11:29:12;7.57;;;2.97;;
51866;SDS011;52862;52.504;13.480;2023-06-22T11:31:53;7.97;;;3.20;;
51866;SDS011;52862;52.504;13.480;2023-06-22T11:34:20;10.27;;;3.03;;
51866;SDS011;52862;52.504;13.480;2023-06-22T11:36:47;4.63;;;3.28;;
51866;SDS011;52862;52.504;13.480;2023-06-22T11:39:15;7.47;;;3.25;;
51866;SDS011;52862;52.504;13.480;2023-06-22T11:41:42;6.40;;;3.40;;
51866;SDS011;52862;52.504;13.480;2023-06-22T11:44:09;7.72;;;2.90;;
51866;SDS011;52862;52.504;13.480;2023-06-22T11:46:36;9.45;;;3.22;;
51866;SDS011;52862;52.504;13.480;2023-06-22T11:49:04;16.33;;;3.45;;
51866;SDS011;52862;52.504;13.480;2023-06-22T11:51:31;6.88;;;3.40;;
51866;SDS011;52862;52.504;13.480;2023-06-22T11:53:58;5.55;;;3.20;;
51866;SDS011;52862;52.504;13.480;2023-06-22T11:56:25;9.65;;;3.20;;
51866;SDS011;52862;52.504;13.480;2023-06-22T11:58:53;6.25;;;3.00;;
51866;SDS011;52862;52.504;13.480;2023-06-22T12:01:21;8.70;;;3.58;;
51866;SDS011;52862;52.504;13.480;2023-06-22T12:03:48;4.40;;;2.97;;
51866;SDS011;52862;52.504;13.480;2023-06-22T12:06:16;12.68;;;3.55;;
51866;SDS011;52862;52.504;13.480;2023-06-22T12:08:43;10.25;;;3.45;;
51866;SDS011;52862;52.504;13.480;2023-06-22T12:11:10;6.65;;;3.30;;
51866;SDS011;52862;52.504;13.480;2023-06-22T12:13:37;9.82;;;3.88;;
51866;SDS011;52862;52.504;13.480;2023-06-22T12:16:04;16.90;;;3.53;;
51866;SDS011;52862;52.504;13.480;2023-06-22T12:18:32;4.45;;;3.05;;
51866;SDS011;52862;52.504;13.480;2023-06-22T12:20:59;12.15;;;3.67;;
51866;SDS011;52862;52.504;13.480;2023-06-22T12:23:31;9.48;;;3.85;;
51866;SDS011;52862;52.504;13.480;2023-06-22T12:26:21;6.70;;;3.38;;
51866;SDS011;52862;52.504;13.480;2023-06-22T12:28:47;5.95;;;3.03;;
51866;SDS011;52862;52.504;13.480;2023-06-22T12:31:15;10.25;;;3.55;;
51866;SDS011;52862;52.504;13.480;2023-06-22T12:33:43;5.55;;;3.95;;
51866;SDS011;52862;52.504;13.480;2023-06-22T12:36:10;11.25;;;3.67;;
51866;SDS011;52862;52.504;13.480;2023-06-22T12:38:38;4.63;;;2.95;;
51866;SDS011;52862;52.504;13.480;2023-06-22T12:41:05;8.57;;;3.63;;
51866;SDS011;52862;52.504;13.480;2023-06-22T12:43:32;6.20;;;3.80;;
51866;SDS011;52862;52.504;13.480;2023-06-22T12:45:59;7.43;;;3.85;;
51866;SDS011;52862;52.504;13.480;2023-06-22T12:48:27;10.63;;;4.13;;
51866;SDS011;52862;52.504;13.480;2023-06-22T12:50:54;4.63;;;3.33;;
51866;SDS011;52862;52.504;13.480;2023-06-22T12:53:21;5.97;;;3.50;;
51866;SDS011;52862;52.504;13.480;2023-06-22T12:55:50;11.57;;;3.05;;
51866;SDS011;52862;52.504;13.480;2023-06-22T12:58:16;5.43;;;3.90;;
51866;SDS011;52862;52.504;13.480;2023-06-22T13:00:43;5.18;;;3.50;;
51866;SDS011;52862;52.504;13.480;2023-06-22T13:03:10;8.02;;;3.55;;
51866;SDS011;52862;52.504;13.480;2023-06-22T13:05:38;5.78;;;3.67;;
51866;SDS011;52862;52.504;13.480;2023-06-22T13:08:05;7.03;;;3.38;;
51866;SDS011;52862;52.504;13.480;2023-06-22T13:10:32;11.73;;;3.50;;
51866;SDS011;52862;52.504;13.480;2023-06-22T13:12:59;10.60;;;3.65;;
51866;SDS011;52862;52.504;13.480;2023-06-22T13:15:27;12.52;;;3.63;;
51866;SDS011;52862;52.504;13.480;2023-06-22T13:17:56;13.75;;;3.30;;
51866;SDS011;52862;52.504;13.480;2023-06-22T13:20:22;7.80;;;3.80;;
51866;SDS011;52862;52.504;13.480;2023-06-22T13:22:49;7.25;;;3.13;;
51866;SDS011;52862;52.504;13.480;2023-06-22T13:25:16;6.32;;;3.42;;
51866;SDS011;52862;52.504;13.480;2023-06-22T13:27:44;6.72;;;3.25;;
51866;SDS011;52862;52.504;13.480;2023-06-22T13:30:12;13.00;;;3.45;;
51866;SDS011;52862;52.504;13.480;2023-06-22T13:32:40;7.38;;;3.17;;
51866;SDS011;52862;52.504;13.480;2023-06-22T13:35:08;10.65;;;3.80;;
51866;SDS011;52862;52.504;13.480;2023-06-22T13:37:36;8.57;;;3.40;;
51866;SDS011;52862;52.504;13.480;2023-06-22T13:40:03;6.20;;;3.40;;
51866;SDS011;52862;52.504;13.480;2023-06-22T13:42:32;488.63;;;27.77;;
51866;SDS011;52862;52.504;13.480;2023-06-22T13:44:59;5.88;;;3.78;;
51866;SDS011;52862;52.504;13.480;2023-06-22T13:47:26;6.85;;;3.50;;
51866;SDS011;52862;52.504;13.480;2023-06-22T13:49:56;7.88;;;3.58;;
51866;SDS011;52862;52.504;13.480;2023-06-22T13:52:23;6.78;;;3.35;;
51866;SDS011;52862;52.504;13.480;2023-06-22T13:54:50;8.00;;;3.63;;
51866;SDS011;52862;52.504;13.480;2023-06-22T13:57:16;8.75;;;3.90;;
51866;SDS011;52862;52.504;13.480;2023-06-22T13:59:43;6.80;;;3.92;;
51866;SDS011;52862;52.504;13.480;2023-06-22T14:02:10;29.75;;;3.97;;
51866;SDS011;52862;52.504;13.480;2023-06-22T14:04:38;17.40;;;4.00;;
51866;SDS011;52862;52.504;13.480;2023-06-22T14:07:05;9.00;;;3.67;;
51866;SDS011;52862;52.504;13.480;2023-06-22T14:09:32;6.50;;;3.85;;
51866;SDS011;52862;52.504;13.480;2023-06-22T14:12:02;6.45;;;3.40;;
51866;SDS011;52862;52.504;13.480;2023-06-22T14:14:30;6.03;;;3.60;;
51866;SDS011;52862;52.504;13.480;2023-06-22T14:16:58;6.03;;;3.60;;
51866;SDS011;52862;52.504;13.480;2023-06-22T14:19:25;9.50;;;3.53;;
51866;SDS011;52862;52.504;13.480;2023-06-22T14:21:53;7.25;;;3.50;;
51866;SDS011;52862;52.504;13.480;2023-06-22T14:24:20;8.43;;;3.47;;
51866;SDS011;52862;52.504;13.480;2023-06-22T14:26:50;9.82;;;3.60;;